createdAt,value
2019-03-13T00:00:24.729Z,48.40
2019-03-13T00:02:53.439Z,48.00
2019-03-13T00:05:21.874Z,48.10
2019-03-13T00:07:50.188Z,47.60
2019-03-13T00:10:18.561Z,47.90
2019-03-13T00:12:47.279Z,47.60
2019-03-13T00:15:15.878Z,47.70
2019-03-13T00:17:44.186Z,47.60
2019-03-13T00:20:12.501Z,47.80
2019-03-13T00:22:41.088Z,47.90
2019-03-13T00:25:09.404Z,47.90
2019-03-13T00:27:37.700Z,47.90
2019-03-13T00:30:08.503Z,47.90
2019-03-13T00:32:37.056Z,47.90
2019-03-13T00:35:08.305Z,47.90
2019-03-13T00:37:36.992Z,48.00
2019-03-13T00:40:08.095Z,48.00
2019-03-13T00:42:38.128Z,48.10
2019-03-13T00:45:11.189Z,48.10
2019-03-13T00:47:39.504Z,48.00
2019-03-13T00:50:11.077Z,48.10
2019-03-13T00:52:39.464Z,47.80
2019-03-13T00:55:07.963Z,47.90
2019-03-13T00:57:36.643Z,47.20
2019-03-13T01:00:08.191Z,46.00
2019-03-13T01:02:38.520Z,46.10
2019-03-13T01:05:15.514Z,46.60
2019-03-13T01:07:44.084Z,46.30
2019-03-13T01:10:12.672Z,46.80
2019-03-13T01:12:41.256Z,46.80
2019-03-13T01:15:10.243Z,46.30
2019-03-13T01:17:39.227Z,44.70
2019-03-13T01:20:08.952Z,44.30
2019-03-13T01:22:37.265Z,44.50
2019-03-13T01:25:07.808Z,44.10
2019-03-13T01:27:36.439Z,44.50
2019-03-13T01:30:08.261Z,44.20
2019-03-13T01:32:44.474Z,43.90
2019-03-13T01:35:14.475Z,44.00
2019-03-13T01:37:42.779Z,43.60
2019-03-13T01:40:11.351Z,43.50
2019-03-13T01:42:39.919Z,43.70
2019-03-13T01:45:09.764Z,43.60
2019-03-13T01:47:38.043Z,43.60
2019-03-13T01:50:09.147Z,43.50
2019-03-13T01:52:37.436Z,43.40
2019-03-13T01:55:07.295Z,43.40
2019-03-13T01:57:35.582Z,43.60
2019-03-13T02:00:06.846Z,43.20
2019-03-13T02:02:35.143Z,43.10
2019-03-13T02:05:03.892Z,43.30
2019-03-13T02:07:32.200Z,42.70
2019-03-13T02:10:00.795Z,42.50
2019-03-13T02:12:29.351Z,42.50
2019-03-13T02:14:57.639Z,42.30
2019-03-13T02:17:25.943Z,42.40
2019-03-13T02:19:54.516Z,42.30
2019-03-13T02:22:22.825Z,43.00
2019-03-13T02:24:54.070Z,42.30
2019-03-13T02:27:21.167Z,42.20
2019-03-13T02:29:49.464Z,42.00
2019-03-13T02:32:17.756Z,42.30
2019-03-13T02:34:46.324Z,42.00
2019-03-13T02:37:14.630Z,41.60
2019-03-13T02:39:42.908Z,42.20
2019-03-13T02:42:11.213Z,42.20
2019-03-13T02:44:39.680Z,42.10
2019-03-13T02:47:08.328Z,42.20
2019-03-13T02:49:36.623Z,41.90
2019-03-13T02:52:06.004Z,41.70
2019-03-13T02:54:34.298Z,41.30
2019-03-13T02:57:02.876Z,41.60
2019-03-13T02:59:31.153Z,41.60
2019-03-13T03:02:02.610Z,41.40
2019-03-13T03:04:31.205Z,41.50
2019-03-13T03:06:59.495Z,41.50
2019-03-13T03:09:28.139Z,41.40
2019-03-13T03:11:56.451Z,41.70
2019-03-13T03:14:24.752Z,41.30
2019-03-13T03:16:53.106Z,41.30
2019-03-13T03:19:21.399Z,41.10
2019-03-13T03:21:49.702Z,41.20
2019-03-13T03:24:18.312Z,41.30
2019-03-13T03:26:46.592Z,41.10
2019-03-13T03:29:14.896Z,41.10
2019-03-13T03:31:43.185Z,41.50
2019-03-13T03:34:11.627Z,41.10
2019-03-13T03:36:40.186Z,41.00
2019-03-13T03:39:08.479Z,41.00
2019-03-13T03:41:36.779Z,41.10
2019-03-13T03:44:05.066Z,41.10
2019-03-13T03:46:33.359Z,41.20
2019-03-13T03:49:01.803Z,40.90
2019-03-13T03:51:30.378Z,40.80
2019-03-13T03:53:58.966Z,40.90
2019-03-13T03:56:27.260Z,40.90
2019-03-13T03:58:55.541Z,40.70
2019-03-13T04:01:24.199Z,40.70
2019-03-13T04:03:52.791Z,40.80
2019-03-13T04:06:21.367Z,40.80
2019-03-13T04:08:49.669Z,40.80
2019-03-13T04:11:18.331Z,40.80
2019-03-13T04:13:48.267Z,41.00
2019-03-13T04:16:16.627Z,40.80
2019-03-13T04:18:45.207Z,40.90
2019-03-13T04:21:13.918Z,40.80
2019-03-13T04:23:42.251Z,41.00
2019-03-13T04:26:12.784Z,40.90
2019-03-13T04:28:40.585Z,40.80
2019-03-13T04:31:09.153Z,40.90
2019-03-13T04:33:39.375Z,40.80
2019-03-13T04:36:07.663Z,41.10
2019-03-13T04:38:35.963Z,40.90
2019-03-13T04:41:04.509Z,41.00
2019-03-13T04:43:33.195Z,40.80
2019-03-13T04:46:01.513Z,40.80
2019-03-13T04:48:30.055Z,40.90
2019-03-13T04:50:58.637Z,40.70
2019-03-13T04:53:26.918Z,41.00
2019-03-13T04:55:55.243Z,40.80
2019-03-13T04:58:23.883Z,40.80
2019-03-13T05:00:52.350Z,40.70
2019-03-13T05:03:20.646Z,40.90
2019-03-13T05:05:50.277Z,41.10
2019-03-13T05:08:44.945Z,41.00
2019-03-13T05:11:06.866Z,40.90
2019-03-13T05:13:35.142Z,41.10
2019-03-13T05:16:03.835Z,40.90
2019-03-13T05:18:32.414Z,40.90
2019-03-13T05:21:00.714Z,41.20
2019-03-13T05:23:29.271Z,40.90
2019-03-13T05:25:57.576Z,41.10
2019-03-13T05:28:26.139Z,41.00
2019-03-13T05:30:54.823Z,40.90
2019-03-13T05:33:23.407Z,41.20
2019-03-13T05:35:51.695Z,41.10
2019-03-13T05:38:19.968Z,41.20
2019-03-13T05:40:48.558Z,41.10
2019-03-13T05:43:17.149Z,41.00
2019-03-13T05:45:45.442Z,41.00
2019-03-13T05:48:13.722Z,41.20
2019-03-13T05:50:42.018Z,41.10
2019-03-13T05:53:10.651Z,41.00
2019-03-13T05:55:38.942Z,41.00
2019-03-13T05:58:07.237Z,41.10
2019-03-13T06:00:35.517Z,41.10
2019-03-13T06:03:04.155Z,40.90
2019-03-13T06:05:32.747Z,41.10
2019-03-13T06:08:01.041Z,41.00
2019-03-13T06:10:29.346Z,41.10
2019-03-13T06:12:57.986Z,41.10
2019-03-13T06:15:26.275Z,41.10
2019-03-13T06:17:54.587Z,40.90
2019-03-13T06:20:23.227Z,41.00
2019-03-13T06:22:51.518Z,41.10
2019-03-13T06:25:19.826Z,41.10
2019-03-13T06:27:48.132Z,41.10
2019-03-13T06:30:21.066Z,41.00
2019-03-13T06:32:49.615Z,41.00
2019-03-13T06:35:17.974Z,40.90
2019-03-13T06:37:46.578Z,41.10
2019-03-13T06:40:17.376Z,41.10
2019-03-13T06:42:46.005Z,41.10
2019-03-13T06:45:17.398Z,40.90
2019-03-13T06:47:45.680Z,41.00
2019-03-13T06:50:19.276Z,40.90
2019-03-13T06:52:47.622Z,40.90
2019-03-13T06:55:15.940Z,41.10
2019-03-13T06:57:44.258Z,40.90
2019-03-13T07:00:33.535Z,41.20
2019-03-13T07:03:09.203Z,41.60
2019-03-13T07:05:48.225Z,41.60
2019-03-13T07:08:20.737Z,42.00
2019-03-13T07:11:07.300Z,42.10
2019-03-13T07:13:40.175Z,42.10
2019-03-13T07:16:10.105Z,42.10
2019-03-13T07:18:40.109Z,42.00
2019-03-13T07:21:10.075Z,41.90
2019-03-13T07:23:40.039Z,41.90
2019-03-13T07:26:21.592Z,41.90
2019-03-13T07:28:52.587Z,42.10
2019-03-13T07:31:25.666Z,42.20
2019-03-13T07:34:14.417Z,42.20
2019-03-13T07:36:47.097Z,42.30
2019-03-13T07:39:32.374Z,42.20
2019-03-13T07:42:10.885Z,42.30
2019-03-13T07:44:57.502Z,42.50
2019-03-13T07:47:29.278Z,42.70
2019-03-13T07:49:59.495Z,42.80
2019-03-13T07:52:32.942Z,43.00
2019-03-13T07:55:06.059Z,43.20
2019-03-13T07:57:54.623Z,43.40
2019-03-13T08:00:27.403Z,43.40
2019-03-13T08:03:06.309Z,43.40
2019-03-13T08:05:36.552Z,43.40
2019-03-13T08:08:06.770Z,43.30
2019-03-13T08:10:39.409Z,43.10
2019-03-13T08:13:34.579Z,43.10
2019-03-13T08:16:07.847Z,43.00
2019-03-13T08:18:54.254Z,43.10
2019-03-13T08:21:24.472Z,43.30
2019-03-13T08:24:10.774Z,43.50
2019-03-13T08:26:57.222Z,43.50
2019-03-13T08:29:36.406Z,43.70
2019-03-13T08:32:22.776Z,43.90
2019-03-13T08:34:54.668Z,43.90
2019-03-13T08:37:27.863Z,44.70
2019-03-13T08:40:03.670Z,44.10
2019-03-13T08:42:33.608Z,44.20
2019-03-13T08:45:06.390Z,44.10
2019-03-13T08:47:53.017Z,44.30
2019-03-13T08:50:31.718Z,44.30
2019-03-13T08:53:16.498Z,44.20
2019-03-13T08:55:46.447Z,44.60
2019-03-13T08:58:31.463Z,44.60
2019-03-13T09:01:01.763Z,44.50
2019-03-13T09:03:34.462Z,44.30
2019-03-13T09:06:16.295Z,44.10
2019-03-13T09:09:02.492Z,44.00
2019-03-13T09:11:50.626Z,43.80
2019-03-13T09:14:26.208Z,43.90
2019-03-13T09:17:12.384Z,43.90
2019-03-13T09:19:53.961Z,44.10
2019-03-13T09:22:39.027Z,44.20
2019-03-13T09:25:12.559Z,44.30
2019-03-13T09:27:59.207Z,44.50
2019-03-13T09:30:29.174Z,44.40
2019-03-13T09:33:07.998Z,44.70
2019-03-13T09:35:42.296Z,44.50
2019-03-13T09:38:12.222Z,44.30
2019-03-13T09:40:48.331Z,44.50
2019-03-13T09:43:24.098Z,44.50
2019-03-13T09:45:56.980Z,44.40
2019-03-13T09:48:32.754Z,44.30
2019-03-13T09:51:08.818Z,44.20
2019-03-13T09:53:38.759Z,44.20
2019-03-13T09:56:14.650Z,44.30
2019-03-13T09:58:44.909Z,44.50
2019-03-13T10:04:18.628Z,44.70
2019-03-13T10:06:51.267Z,44.80
2019-03-13T10:09:21.228Z,45.00
2019-03-13T10:12:06.385Z,45.10
2019-03-13T10:14:36.622Z,45.10
2019-03-13T10:17:15.420Z,45.10
2019-03-13T10:19:51.502Z,45.10
2019-03-13T10:22:38.219Z,45.20
2019-03-13T10:25:20.724Z,45.00
2019-03-13T10:27:56.546Z,44.60
2019-03-13T10:30:29.258Z,44.30
2019-03-13T10:33:15.766Z,44.30
2019-03-13T10:35:45.992Z,44.20
2019-03-13T10:38:27.910Z,44.40
2019-03-13T10:41:00.423Z,44.60
2019-03-13T10:43:30.690Z,44.70
2019-03-13T10:46:19.235Z,44.90
2019-03-13T10:49:05.590Z,45.00
2019-03-13T10:51:38.739Z,45.10
2019-03-13T10:54:08.737Z,45.20
2019-03-13T10:56:41.535Z,45.10
2019-03-13T10:59:11.715Z,45.10
2019-03-13T11:01:41.658Z,45.20
2019-03-13T11:04:14.338Z,45.30
2019-03-13T11:07:01.152Z,45.20
2019-03-13T11:09:43.659Z,45.20
2019-03-13T11:12:19.535Z,45.10
2019-03-13T11:14:52.711Z,44.80
2019-03-13T11:17:22.653Z,44.60
2019-03-13T11:20:01.441Z,44.40
2019-03-13T11:22:34.273Z,44.30
2019-03-13T11:25:20.939Z,44.20
2019-03-13T11:28:00.350Z,44.20
2019-03-13T11:30:30.275Z,44.60
2019-03-13T11:33:16.695Z,44.80
2019-03-13T11:35:49.611Z,44.90
2019-03-13T11:38:25.533Z,45.10
2019-03-13T11:41:07.843Z,45.20
2019-03-13T11:43:41.112Z,45.40
2019-03-13T11:46:18.890Z,45.50
2019-03-13T11:48:57.806Z,45.40
2019-03-13T11:51:30.574Z,45.50
2019-03-13T11:54:00.872Z,45.70
2019-03-13T11:56:46.140Z,45.80
2019-03-13T11:59:31.198Z,45.80
2019-03-13T12:02:01.429Z,45.80
2019-03-13T12:04:40.564Z,45.70
2019-03-13T12:07:22.432Z,45.70
2019-03-13T12:10:08.353Z,45.90
2019-03-13T12:12:38.571Z,45.90
2019-03-13T12:15:20.585Z,45.90
2019-03-13T12:18:02.415Z,46.00
2019-03-13T12:20:44.178Z,46.10
2019-03-13T12:23:14.108Z,45.90
2019-03-13T12:25:46.958Z,45.60
2019-03-13T12:28:28.873Z,45.50
2019-03-13T12:31:14.211Z,45.50
2019-03-13T12:33:46.670Z,45.50
2019-03-13T12:36:28.800Z,45.50
2019-03-13T12:39:01.542Z,44.90
2019-03-13T12:41:37.491Z,45.60
2019-03-13T12:44:25.715Z,46.10
2019-03-13T12:47:01.534Z,45.90
2019-03-13T12:49:31.460Z,45.90
2019-03-13T12:52:13.364Z,46.00
2019-03-13T12:54:43.295Z,46.00
2019-03-13T12:57:28.243Z,46.10
2019-03-13T12:59:58.173Z,46.30
2019-03-13T13:02:28.117Z,46.40
2019-03-13T13:05:13.231Z,46.40
2019-03-13T13:07:43.171Z,46.40
2019-03-13T13:10:22.376Z,46.50
2019-03-13T13:13:07.395Z,46.60
2019-03-13T13:15:49.874Z,46.60
2019-03-13T13:18:36.434Z,46.70
2019-03-13T13:21:04.719Z,46.70
2019-03-13T13:23:33.003Z,46.50
2019-03-13T13:26:01.341Z,46.30
2019-03-13T13:28:29.669Z,46.40
2019-03-13T13:30:57.978Z,46.40
2019-03-13T13:33:26.551Z,46.40
2019-03-13T13:35:55.119Z,46.50
2019-03-13T13:38:23.415Z,46.50
2019-03-13T13:40:52.077Z,46.60
2019-03-13T13:43:20.351Z,46.60
2019-03-13T13:45:51.800Z,46.70
2019-03-13T13:48:20.389Z,46.60
2019-03-13T13:50:48.687Z,46.60
2019-03-13T13:53:16.976Z,46.50
2019-03-13T13:55:45.257Z,46.90
2019-03-13T13:58:13.578Z,47.00
2019-03-13T14:00:41.850Z,46.90
2019-03-13T14:03:10.157Z,46.90
2019-03-13T14:05:40.942Z,46.80
2019-03-13T14:08:08.474Z,46.60
2019-03-13T14:10:37.035Z,46.70
2019-03-13T14:13:05.354Z,46.60
2019-03-13T14:15:33.647Z,46.90
2019-03-13T14:18:02.267Z,46.80
2019-03-13T14:20:30.850Z,46.90
2019-03-13T14:22:59.430Z,47.00
2019-03-13T14:25:27.715Z,46.90
2019-03-13T14:27:56.021Z,46.90
2019-03-13T14:30:24.301Z,47.00
2019-03-13T14:32:52.603Z,47.10
2019-03-13T14:35:21.226Z,47.10
2019-03-13T14:37:49.526Z,47.00
2019-03-13T14:40:18.863Z,47.00
2019-03-13T14:42:47.249Z,46.90
2019-03-13T14:45:18.019Z,46.90
2019-03-13T14:47:46.336Z,46.90
2019-03-13T14:50:20.310Z,46.90
2019-03-13T14:52:48.621Z,47.00
2019-03-13T14:55:18.401Z,47.10
2019-03-13T14:57:46.982Z,47.00
2019-03-13T15:00:22.615Z,47.00
2019-03-13T15:02:51.020Z,46.90
2019-03-13T15:05:19.694Z,46.90
2019-03-13T15:07:47.986Z,46.80
2019-03-13T15:10:17.880Z,46.70
2019-03-13T15:12:46.192Z,46.80
2019-03-13T15:15:18.942Z,46.80
2019-03-13T15:17:47.555Z,46.80
2019-03-13T15:20:21.721Z,46.80
2019-03-13T15:22:50.535Z,46.80
2019-03-13T15:25:18.838Z,47.00
2019-03-13T15:27:47.149Z,46.90
2019-03-13T15:30:24.442Z,47.00
2019-03-13T15:32:53.062Z,47.20
2019-03-13T15:35:21.643Z,47.30
2019-03-13T15:37:50.062Z,47.20
2019-03-13T15:40:19.157Z,47.40
2019-03-13T15:42:47.698Z,47.30
2019-03-13T15:45:33.868Z,47.10
2019-03-13T15:48:02.515Z,47.10
2019-03-13T15:50:30.810Z,47.10
2019-03-13T15:52:59.446Z,47.10
2019-03-13T15:55:28.032Z,47.30
2019-03-13T15:57:56.351Z,47.30
2019-03-13T16:00:28.986Z,47.40
2019-03-13T16:02:57.304Z,47.50
2019-03-13T16:05:25.605Z,47.30
2019-03-13T16:07:53.908Z,47.30
2019-03-13T16:10:22.226Z,47.90
2019-03-13T16:12:51.578Z,47.40
2019-03-13T16:15:26.975Z,47.30
2019-03-13T16:17:55.267Z,47.40
2019-03-13T16:20:23.603Z,47.60
2019-03-13T16:22:56.298Z,47.50
2019-03-13T16:25:24.891Z,47.60
2019-03-13T16:27:53.424Z,47.70
2019-03-13T16:30:29.906Z,48.10
2019-03-13T16:32:58.220Z,47.90
2019-03-13T16:35:26.715Z,47.80
2019-03-13T16:37:55.192Z,47.60
2019-03-13T16:40:23.479Z,47.70
2019-03-13T16:42:51.809Z,47.60
2019-03-13T16:45:21.156Z,47.70
2019-03-13T16:47:49.458Z,47.90
2019-03-13T16:50:37.218Z,47.80
2019-03-13T16:53:05.528Z,48.00
2019-03-13T16:55:34.186Z,48.00
2019-03-13T16:58:02.762Z,48.10
2019-03-13T17:00:32.525Z,48.00
2019-03-13T17:03:01.216Z,48.20
2019-03-13T17:05:29.568Z,47.60
2019-03-13T17:07:57.966Z,47.50
2019-03-13T17:10:27.377Z,47.50
2019-03-13T17:12:56.012Z,47.40
2019-03-13T17:15:25.104Z,47.50
2019-03-13T17:17:53.872Z,47.60
2019-03-13T17:20:29.908Z,47.70
2019-03-13T17:22:58.643Z,48.00
2019-03-13T17:25:26.938Z,47.90
2019-03-13T17:27:55.496Z,47.90
2019-03-13T17:30:28.230Z,48.00
2019-03-13T17:32:56.867Z,47.80
2019-03-13T17:35:25.552Z,47.90
2019-03-13T17:37:53.843Z,48.00
2019-03-13T17:40:31.396Z,48.00
2019-03-13T17:43:00.007Z,48.10
2019-03-13T17:45:29.607Z,48.50
2019-03-13T17:47:57.911Z,48.50
2019-03-13T17:50:26.233Z,48.60
2019-03-13T17:52:54.850Z,48.50
2019-03-13T17:55:24.478Z,48.40
2019-03-13T17:57:53.149Z,48.30
2019-03-13T18:00:50.101Z,48.40
2019-03-13T18:03:19.089Z,48.30
2019-03-13T18:05:47.375Z,48.10
2019-03-13T18:08:15.697Z,48.10
2019-03-13T18:10:43.986Z,48.00
2019-03-13T18:13:12.679Z,48.30
2019-03-13T18:15:41.320Z,48.50
2019-03-13T18:18:09.639Z,48.60
2019-03-13T18:20:37.938Z,48.60
2019-03-13T18:23:08.899Z,48.70
2019-03-13T18:25:37.325Z,48.50
2019-03-13T18:28:05.943Z,48.30
2019-03-13T18:30:35.475Z,48.20
2019-03-13T18:33:03.838Z,48.10
2019-03-13T18:35:32.401Z,48.10
2019-03-13T18:38:00.703Z,48.00
2019-03-13T18:40:29.387Z,48.20
2019-03-13T18:42:57.970Z,48.20
2019-03-13T18:45:27.809Z,48.20
2019-03-13T18:47:56.451Z,48.10
2019-03-13T18:50:24.852Z,48.20
2019-03-13T18:52:53.647Z,48.30
2019-03-13T18:55:29.998Z,48.20
2019-03-13T18:57:59.350Z,48.10
2019-03-13T19:00:31.283Z,48.20
2019-03-13T19:02:59.839Z,48.40
2019-03-13T19:05:29.671Z,48.60
2019-03-13T19:07:57.988Z,48.80
2019-03-13T19:10:30.923Z,49.50
2019-03-13T19:12:59.502Z,50.10
2019-03-13T19:15:28.171Z,51.30
2019-03-13T19:17:56.553Z,51.00
2019-03-13T19:20:27.045Z,50.80
2019-03-13T19:22:55.689Z,50.80
2019-03-13T19:25:24.087Z,50.60
2019-03-13T19:27:52.381Z,50.50
2019-03-13T19:30:32.286Z,50.40
2019-03-13T19:33:00.902Z,50.20
2019-03-13T19:35:29.579Z,50.50
2019-03-13T19:38:07.362Z,50.70
2019-03-13T19:40:35.692Z,50.30
2019-03-13T19:43:04.071Z,50.40
2019-03-13T19:45:41.622Z,50.20
2019-03-13T19:48:10.324Z,50.40
2019-03-13T19:50:39.214Z,49.70
2019-03-13T19:53:07.768Z,49.60
2019-03-13T19:55:36.370Z,49.80
2019-03-13T19:58:05.046Z,49.60
2019-03-13T20:00:33.452Z,49.80
2019-03-13T20:03:16.043Z,49.60
2019-03-13T20:05:46.231Z,49.50
2019-03-13T20:08:14.423Z,49.60
2019-03-13T20:10:43.095Z,49.60
2019-03-13T20:13:11.390Z,49.40
2019-03-13T20:15:40.079Z,49.50
2019-03-13T20:18:08.665Z,49.30
2019-03-13T20:20:37.251Z,49.40
2019-03-13T20:23:10.846Z,49.60
2019-03-13T20:25:39.153Z,49.50
2019-03-13T20:28:07.433Z,49.60
2019-03-13T20:30:35.850Z,49.40
2019-03-13T20:33:04.145Z,49.60
2019-03-13T20:35:32.436Z,49.90
2019-03-13T20:38:01.011Z,49.90
2019-03-13T20:40:30.105Z,50.20
2019-03-13T20:43:02.251Z,49.80
2019-03-13T20:45:31.035Z,50.30
2019-03-13T20:47:59.454Z,50.00
2019-03-13T20:50:36.620Z,50.20
2019-03-13T20:52:58.062Z,49.90
2019-03-13T20:55:26.370Z,49.70
2019-03-13T20:57:54.738Z,49.60
2019-03-13T21:00:26.699Z,49.60
2019-03-13T21:02:56.076Z,49.80
2019-03-13T21:05:25.110Z,49.60
2019-03-13T21:07:54.165Z,49.50
2019-03-13T21:10:22.735Z,49.50
2019-03-13T21:12:51.323Z,49.50
2019-03-13T21:15:25.027Z,49.60
2019-03-13T21:17:53.434Z,49.50
2019-03-13T21:20:22.100Z,49.80
2019-03-13T21:22:50.397Z,49.80
2019-03-13T21:25:21.071Z,50.00
2019-03-13T21:27:49.382Z,50.20
2019-03-13T21:30:26.151Z,50.20
2019-03-13T21:32:54.534Z,49.90
2019-03-13T21:35:23.506Z,49.80
2019-03-13T21:37:52.133Z,49.80
2019-03-13T21:40:25.674Z,49.70
2019-03-13T21:42:54.979Z,49.70
2019-03-13T21:45:23.754Z,49.20
2019-03-13T21:47:52.390Z,49.40
2019-03-13T21:50:20.966Z,49.40
2019-03-13T21:52:49.360Z,49.60
2019-03-13T21:55:18.400Z,49.50
2019-03-13T21:57:46.695Z,49.20
2019-03-13T22:00:28.002Z,49.20
2019-03-13T22:02:56.303Z,49.60
2019-03-13T22:05:26.954Z,49.50
2019-03-13T22:07:54.985Z,49.50
2019-03-13T22:10:24.282Z,49.40
2019-03-13T22:12:52.639Z,49.40
2019-03-13T22:15:24.139Z,49.30
2019-03-13T22:17:52.797Z,49.20
2019-03-13T22:20:21.103Z,49.60
2019-03-13T22:22:49.484Z,49.50
2019-03-13T22:25:18.856Z,49.50
2019-03-13T22:27:47.442Z,49.50
2019-03-13T22:30:22.283Z,49.40
2019-03-13T22:32:50.587Z,49.30
2019-03-13T22:35:19.250Z,49.30
2019-03-13T22:37:47.844Z,49.20
2019-03-13T22:40:17.121Z,49.20
2019-03-13T22:42:45.709Z,49.20
2019-03-13T22:45:18.502Z,49.60
2019-03-13T22:47:46.786Z,49.50
2019-03-13T22:50:19.269Z,49.50
2019-03-13T22:52:49.191Z,50.00
2019-03-13T22:55:17.843Z,49.80
2019-03-13T22:57:46.348Z,49.80
2019-03-13T23:00:57.706Z,49.90
2019-03-13T23:03:27.324Z,49.70
2019-03-13T23:05:55.997Z,49.50
2019-03-13T23:08:24.294Z,49.50
2019-03-13T23:10:52.603Z,49.50
2019-03-13T23:13:21.144Z,49.40
2019-03-13T23:15:52.699Z,49.40
2019-03-13T23:18:21.371Z,49.40
2019-03-13T23:20:49.973Z,49.50
2019-03-13T23:23:18.278Z,49.70
2019-03-13T23:25:46.625Z,49.50
2019-03-13T23:28:14.933Z,49.40
2019-03-13T23:30:43.675Z,49.40
2019-03-13T23:33:12.394Z,49.10
2019-03-13T23:35:40.760Z,49.00
2019-03-13T23:38:09.134Z,49.20
2019-03-13T23:40:37.819Z,49.00
2019-03-13T23:43:06.388Z,49.00
2019-03-13T23:45:34.686Z,49.00
2019-03-13T23:48:03.069Z,49.00
2019-03-13T23:50:31.497Z,48.70
2019-03-13T23:53:00.118Z,48.70
2019-03-13T23:55:28.705Z,48.80
2019-03-13T23:57:57.279Z,48.80
